createdAt,value
2017-09-13T00:01:29.725Z,13.50
2017-09-13T00:03:57.291Z,13.40
2017-09-13T00:06:25.651Z,13.20
2017-09-13T00:08:54.032Z,13.20
2017-09-13T00:11:22.351Z,13.20
2017-09-13T00:13:49.955Z,13.20
2017-09-13T00:16:17.535Z,13.00
2017-09-13T00:18:45.102Z,13.00
2017-09-13T00:21:12.683Z,12.90
2017-09-13T00:23:40.242Z,13.00
2017-09-13T00:26:07.821Z,13.00
2017-09-13T00:28:35.390Z,12.80
2017-09-13T00:31:02.992Z,12.80
2017-09-13T00:33:30.562Z,12.90
2017-09-13T00:35:58.166Z,12.90
2017-09-13T00:38:25.730Z,12.90
2017-09-13T00:40:53.303Z,12.90
2017-09-13T00:43:20.845Z,12.80
2017-09-13T00:45:48.499Z,12.80
2017-09-13T00:48:16.129Z,12.70
2017-09-13T00:50:43.699Z,12.70
2017-09-13T00:53:11.223Z,12.70
2017-09-13T00:55:38.780Z,12.60
2017-09-13T00:58:06.321Z,12.60
2017-09-13T01:00:33.911Z,12.70
2017-09-13T01:03:01.475Z,12.80
2017-09-13T01:05:29.036Z,12.90
2017-09-13T01:07:56.685Z,13.00
2017-09-13T01:10:24.304Z,13.10
2017-09-13T01:12:51.843Z,13.10
2017-09-13T01:15:19.545Z,13.20
2017-09-13T01:17:47.924Z,13.30
2017-09-13T01:20:15.509Z,13.30
2017-09-13T01:22:43.155Z,13.30
2017-09-13T01:25:10.793Z,13.40
2017-09-13T01:27:39.176Z,13.60
2017-09-13T01:30:06.759Z,13.60
2017-09-13T01:32:34.431Z,13.70
2017-09-13T01:35:02.854Z,13.90
2017-09-13T01:37:30.410Z,13.90
2017-09-13T01:39:57.989Z,14.10
2017-09-13T01:42:26.366Z,14.20
2017-09-13T01:44:54.096Z,14.20
2017-09-13T01:47:21.695Z,14.30
2017-09-13T01:49:49.258Z,14.30
2017-09-13T01:52:16.854Z,14.30
2017-09-13T01:54:44.545Z,14.40
2017-09-13T01:57:12.208Z,14.50
2017-09-13T01:59:39.805Z,14.50
2017-09-13T02:02:07.433Z,14.60
2017-09-13T02:04:35.787Z,14.60
2017-09-13T02:07:05.184Z,14.70
2017-09-13T02:09:33.632Z,14.70
2017-09-13T02:12:01.208Z,14.80
2017-09-13T02:14:28.798Z,14.70
2017-09-13T02:16:56.457Z,14.70
2017-09-13T02:19:24.091Z,14.60
2017-09-13T02:21:51.733Z,14.50
2017-09-13T02:24:19.386Z,14.50
2017-09-13T02:26:46.967Z,14.50
2017-09-13T02:29:14.612Z,14.50
2017-09-13T02:31:42.163Z,14.60
2017-09-13T02:34:10.601Z,14.60
2017-09-13T02:36:38.259Z,14.60
2017-09-13T02:39:05.844Z,14.70
2017-09-13T02:41:33.486Z,14.70
2017-09-13T02:44:01.080Z,14.70
2017-09-13T02:46:28.690Z,14.80
2017-09-13T02:48:56.255Z,14.90
2017-09-13T02:51:23.848Z,14.90
2017-09-13T02:53:52.215Z,14.90
2017-09-13T02:56:20.600Z,14.90
2017-09-13T02:58:48.296Z,14.90
2017-09-13T03:01:15.939Z,14.90
2017-09-13T03:03:43.563Z,14.90
2017-09-13T03:06:11.167Z,14.90
2017-09-13T03:08:38.791Z,14.90
2017-09-13T03:11:07.119Z,14.90
2017-09-13T03:13:34.725Z,15.00
2017-09-13T03:16:03.083Z,15.10
2017-09-13T03:18:30.699Z,15.10
2017-09-13T03:20:58.380Z,15.10
2017-09-13T03:23:26.773Z,15.10
2017-09-13T03:25:54.312Z,15.10
2017-09-13T03:28:21.966Z,15.10
2017-09-13T03:30:49.522Z,15.20
2017-09-13T03:33:17.086Z,15.30
2017-09-13T03:35:44.712Z,15.30
2017-09-13T03:38:12.323Z,15.40
2017-09-13T03:40:40.900Z,15.40
2017-09-13T03:43:09.277Z,15.40
2017-09-13T03:45:37.147Z,15.40
2017-09-13T03:48:04.727Z,15.40
2017-09-13T03:50:32.365Z,15.40
2017-09-13T03:53:00.009Z,15.40
2017-09-13T03:55:27.595Z,15.40
2017-09-13T03:57:56.026Z,15.40
2017-09-13T04:00:23.643Z,15.30
2017-09-13T04:02:51.258Z,15.40
2017-09-13T04:05:19.595Z,15.40
2017-09-13T04:07:47.205Z,15.40
2017-09-13T04:10:14.863Z,15.30
2017-09-13T04:12:42.431Z,15.30
2017-09-13T04:15:10.048Z,15.30
2017-09-13T04:17:37.753Z,15.30
2017-09-13T04:20:06.125Z,15.40
2017-09-13T04:22:34.729Z,15.40
2017-09-13T04:25:04.783Z,15.40
2017-09-13T04:27:33.433Z,15.40
2017-09-13T04:30:01.862Z,15.40
2017-09-13T04:32:29.542Z,15.40
2017-09-13T04:34:57.175Z,15.40
2017-09-13T04:37:24.753Z,15.50
2017-09-13T04:39:53.172Z,15.50
2017-09-13T04:42:20.716Z,15.50
2017-09-13T04:44:48.273Z,15.40
2017-09-13T04:47:15.838Z,15.40
2017-09-13T04:49:43.461Z,15.40
2017-09-13T04:52:11.115Z,15.50
2017-09-13T04:54:38.700Z,15.50
2017-09-13T04:57:06.322Z,15.50
2017-09-13T04:59:33.962Z,15.50
2017-09-13T05:02:01.589Z,15.50
2017-09-13T05:04:29.170Z,15.60
2017-09-13T05:06:56.829Z,15.60
2017-09-13T05:09:26.047Z,15.60
2017-09-13T05:11:54.023Z,15.60
2017-09-13T05:14:21.628Z,15.60
2017-09-13T05:16:49.987Z,15.70
2017-09-13T05:19:18.318Z,15.60
2017-09-13T05:21:45.894Z,15.70
2017-09-13T05:24:14.267Z,15.70
2017-09-13T05:26:43.202Z,15.70
2017-09-13T05:29:10.984Z,15.70
2017-09-13T05:31:39.356Z,15.70
2017-09-13T05:34:07.652Z,15.80
2017-09-13T05:36:35.302Z,15.80
2017-09-13T05:39:02.891Z,15.80
2017-09-13T05:41:30.504Z,15.90
2017-09-13T05:43:58.111Z,15.90
2017-09-13T05:46:25.710Z,15.90
2017-09-13T05:48:53.288Z,16.00
2017-09-13T05:51:21.025Z,15.90
2017-09-13T05:53:48.583Z,16.00
2017-09-13T05:56:16.115Z,16.00
2017-09-13T05:58:43.719Z,16.00
2017-09-13T06:01:11.251Z,16.00
2017-09-13T06:03:38.820Z,16.00
2017-09-13T06:06:06.359Z,16.00
2017-09-13T06:08:33.920Z,16.00
2017-09-13T06:11:02.274Z,16.10
2017-09-13T06:13:29.799Z,16.10
2017-09-13T06:15:57.339Z,16.00
2017-09-13T06:18:24.911Z,16.10
2017-09-13T06:20:52.495Z,16.10
2017-09-13T06:23:20.831Z,16.20
2017-09-13T06:25:48.359Z,16.20
2017-09-13T06:28:15.973Z,16.20
2017-09-13T06:30:43.513Z,16.20
2017-09-13T06:33:11.087Z,16.30
2017-09-13T06:35:38.611Z,16.30
2017-09-13T06:38:06.195Z,16.40
2017-09-13T06:40:33.727Z,16.40
2017-09-13T06:43:02.299Z,16.50
2017-09-13T06:45:29.835Z,16.50
2017-09-13T06:47:57.405Z,16.60
2017-09-13T06:50:24.939Z,16.60
2017-09-13T06:52:52.526Z,16.60
2017-09-13T06:55:20.820Z,16.70
2017-09-13T06:57:48.389Z,16.70
2017-09-13T07:00:15.923Z,16.80
2017-09-13T07:02:43.485Z,16.80
2017-09-13T07:05:11.023Z,16.80
2017-09-13T07:07:38.595Z,16.90
2017-09-13T07:10:06.119Z,16.90
2017-09-13T07:12:33.687Z,16.80
2017-09-13T07:15:01.215Z,16.80
2017-09-13T07:17:28.777Z,16.80
2017-09-13T07:19:56.315Z,16.80
2017-09-13T07:22:23.888Z,16.80
2017-09-13T07:24:52.208Z,16.70
2017-09-13T07:27:19.774Z,16.80
2017-09-13T07:29:47.313Z,16.80
2017-09-13T07:32:14.879Z,16.80
2017-09-13T07:34:43.179Z,16.70
2017-09-13T07:37:10.748Z,16.70
2017-09-13T07:39:38.279Z,16.80
2017-09-13T07:42:05.839Z,16.70
2017-09-13T07:44:33.363Z,16.70
2017-09-13T07:47:00.931Z,16.70
2017-09-13T07:49:28.463Z,16.70
2017-09-13T07:51:56.023Z,16.60
2017-09-13T07:54:23.556Z,16.70
2017-09-13T07:56:51.115Z,16.60
2017-09-13T07:59:18.645Z,16.70
2017-09-13T08:01:46.260Z,16.70
2017-09-13T08:04:13.832Z,16.70
2017-09-13T08:06:41.375Z,16.70
2017-09-13T08:09:08.951Z,16.70
2017-09-13T08:11:36.479Z,16.80
2017-09-13T08:14:04.047Z,16.90
2017-09-13T08:16:31.591Z,16.90
2017-09-13T08:18:59.151Z,16.90
2017-09-13T08:21:26.678Z,16.90
2017-09-13T08:23:54.251Z,16.90
2017-09-13T08:26:22.569Z,16.90
2017-09-13T08:28:50.134Z,16.90
2017-09-13T08:31:17.663Z,16.90
2017-09-13T08:33:45.252Z,17.00
2017-09-13T08:36:14.016Z,17.00
2017-09-13T08:38:42.322Z,17.10
2017-09-13T08:41:09.893Z,17.10
2017-09-13T08:43:37.434Z,17.10
2017-09-13T08:46:05.004Z,17.20
2017-09-13T08:48:32.536Z,17.20
2017-09-13T08:51:00.111Z,17.20
2017-09-13T08:53:28.419Z,17.30
2017-09-13T08:55:56.001Z,17.30
2017-09-13T08:58:23.564Z,17.40
2017-09-13T09:00:51.892Z,17.50
2017-09-13T09:03:19.427Z,17.50
2017-09-13T09:05:47.012Z,17.60
2017-09-13T09:08:15.320Z,17.60
2017-09-13T09:10:42.916Z,17.60
2017-09-13T09:13:10.447Z,17.60
2017-09-13T09:15:38.028Z,17.70
2017-09-13T09:18:05.593Z,17.70
2017-09-13T09:20:33.127Z,17.70
2017-09-13T09:23:01.397Z,17.80
2017-09-13T09:25:28.934Z,17.80
2017-09-13T09:27:56.521Z,17.80
2017-09-13T09:30:24.097Z,17.90
2017-09-13T09:32:52.431Z,17.90
2017-09-13T09:35:19.984Z,17.90
2017-09-13T09:37:47.558Z,17.80
2017-09-13T09:40:15.855Z,17.90
2017-09-13T09:42:43.428Z,17.90
2017-09-13T09:45:10.947Z,17.90
2017-09-13T09:47:38.503Z,18.00
2017-09-13T09:50:06.027Z,18.10
2017-09-13T09:52:33.615Z,18.10
2017-09-13T09:55:01.151Z,18.10
2017-09-13T09:57:28.688Z,18.20
2017-09-13T09:59:56.249Z,18.20
2017-09-13T10:02:25.299Z,18.20
2017-09-13T10:04:52.871Z,18.20
2017-09-13T10:07:20.432Z,18.20
2017-09-13T10:09:47.993Z,18.20
2017-09-13T10:12:16.344Z,18.20
2017-09-13T10:14:43.870Z,18.20
2017-09-13T10:17:12.170Z,18.20
2017-09-13T10:19:40.498Z,18.20
2017-09-13T10:22:08.035Z,18.20
2017-09-13T10:24:35.607Z,18.20
2017-09-13T10:27:03.135Z,18.30
2017-09-13T10:29:30.672Z,18.30
2017-09-13T10:31:58.233Z,18.30
2017-09-13T10:34:25.759Z,18.20
2017-09-13T10:36:53.343Z,18.20
2017-09-13T10:39:21.631Z,18.20
2017-09-13T10:41:49.156Z,18.10
2017-09-13T10:44:16.723Z,18.20
2017-09-13T10:46:44.258Z,18.20
2017-09-13T10:49:11.847Z,18.20
2017-09-13T10:51:39.371Z,18.20
2017-09-13T10:54:06.898Z,18.20
2017-09-13T10:56:34.452Z,18.20
2017-09-13T10:59:01.988Z,18.30
2017-09-13T11:01:29.558Z,18.30
2017-09-13T11:03:57.092Z,18.40
2017-09-13T11:06:24.615Z,18.40
2017-09-13T11:08:52.167Z,18.30
2017-09-13T11:11:19.700Z,18.30
2017-09-13T11:13:47.284Z,18.30
2017-09-13T11:16:14.824Z,18.20
2017-09-13T11:18:42.351Z,18.20
2017-09-13T11:21:09.920Z,18.20
2017-09-13T11:23:37.455Z,18.10
2017-09-13T11:26:05.039Z,18.20
2017-09-13T11:28:32.578Z,18.30
2017-09-13T11:31:00.115Z,18.20
2017-09-13T11:33:27.675Z,18.20
2017-09-13T11:35:55.236Z,18.20
2017-09-13T11:38:23.603Z,18.30
2017-09-13T11:40:51.898Z,18.30
2017-09-13T11:43:20.295Z,18.30
2017-09-13T11:45:47.858Z,18.30
2017-09-13T11:48:15.387Z,18.30
2017-09-13T11:50:42.983Z,18.40
2017-09-13T11:53:10.511Z,18.40
2017-09-13T11:55:38.814Z,18.40
2017-09-13T11:58:06.389Z,18.40
2017-09-13T12:00:33.922Z,18.40
2017-09-13T12:03:01.498Z,18.40
2017-09-13T12:05:29.844Z,18.50
2017-09-13T12:07:57.375Z,18.40
2017-09-13T12:10:24.935Z,18.50
2017-09-13T12:12:52.465Z,18.50
2017-09-13T12:15:20.031Z,18.50
2017-09-13T12:17:47.564Z,18.60
2017-09-13T12:20:15.141Z,18.60
2017-09-13T12:22:43.447Z,18.60
2017-09-13T12:25:11.016Z,18.60
2017-09-13T12:27:38.545Z,18.50
2017-09-13T12:30:06.888Z,18.70
2017-09-13T12:32:34.460Z,18.70
2017-09-13T12:35:02.762Z,18.70
2017-09-13T12:37:31.093Z,18.70
2017-09-13T12:39:58.635Z,18.70
2017-09-13T12:42:26.220Z,18.80
2017-09-13T12:44:54.524Z,18.70
2017-09-13T12:47:22.115Z,18.70
2017-09-13T12:49:49.656Z,18.70
2017-09-13T12:52:17.239Z,18.70
2017-09-13T12:54:44.792Z,18.80
2017-09-13T12:57:12.336Z,18.80
2017-09-13T12:59:39.902Z,18.80
2017-09-13T13:02:07.436Z,18.90
2017-09-13T13:04:35.017Z,18.90
2017-09-13T13:07:02.589Z,19.00
2017-09-13T13:09:30.914Z,19.00
2017-09-13T13:11:58.457Z,19.00
2017-09-13T13:14:26.047Z,19.00
2017-09-13T13:16:53.600Z,19.10
2017-09-13T13:19:21.172Z,19.10
2017-09-13T13:21:48.707Z,19.10
2017-09-13T13:24:16.287Z,19.20
2017-09-13T13:26:43.832Z,19.20
2017-09-13T13:29:11.399Z,19.20
2017-09-13T13:31:39.019Z,19.30
2017-09-13T13:34:06.591Z,19.40
2017-09-13T13:36:34.149Z,19.40
2017-09-13T13:39:02.591Z,19.40
2017-09-13T13:41:30.137Z,19.40
2017-09-13T13:43:57.887Z,19.40
2017-09-13T13:46:25.437Z,19.50
2017-09-13T13:48:53.167Z,19.50
2017-09-13T13:51:20.741Z,19.70
2017-09-13T13:53:49.057Z,19.90
2017-09-13T13:56:16.623Z,19.80
2017-09-13T13:58:44.161Z,19.90
2017-09-13T14:01:12.497Z,20.00
2017-09-13T14:03:40.038Z,20.00
2017-09-13T14:06:07.608Z,20.10
2017-09-13T14:08:35.131Z,20.20
2017-09-13T14:11:02.731Z,20.20
2017-09-13T14:13:30.271Z,20.30
2017-09-13T14:15:57.800Z,20.40
2017-09-13T14:18:25.363Z,20.40
2017-09-13T14:20:52.903Z,20.50
2017-09-13T14:23:20.478Z,20.60
2017-09-13T14:25:48.022Z,20.70
2017-09-13T14:28:16.347Z,20.80
2017-09-13T14:30:43.876Z,20.80
2017-09-13T14:33:11.457Z,20.90
2017-09-13T14:35:38.999Z,20.80
2017-09-13T14:38:06.559Z,20.80
2017-09-13T14:40:34.851Z,20.70
2017-09-13T14:43:02.416Z,20.60
2017-09-13T14:45:29.964Z,20.50
2017-09-13T14:47:57.612Z,20.60
2017-09-13T14:50:25.150Z,20.60
2017-09-13T14:52:52.728Z,20.50
2017-09-13T14:55:20.259Z,20.60
2017-09-13T14:57:47.819Z,20.50
2017-09-13T15:00:15.352Z,20.50
2017-09-13T15:02:42.917Z,20.50
2017-09-13T15:05:10.443Z,20.50
2017-09-13T15:07:38.013Z,20.60
2017-09-13T15:10:06.304Z,20.70
2017-09-13T15:12:33.872Z,20.70
2017-09-13T15:15:01.399Z,20.70
2017-09-13T15:17:28.968Z,20.70
2017-09-13T15:19:56.508Z,20.70
2017-09-13T15:22:24.092Z,20.70
2017-09-13T15:24:51.644Z,20.60
2017-09-13T15:27:19.939Z,20.90
2017-09-13T15:29:47.504Z,20.90
2017-09-13T15:32:15.083Z,21.00
2017-09-13T15:34:42.612Z,21.10
2017-09-13T15:37:10.203Z,21.20
2017-09-13T15:39:37.734Z,21.30
2017-09-13T15:42:06.024Z,21.40
2017-09-13T15:44:33.595Z,21.40
2017-09-13T15:47:01.128Z,21.40
2017-09-13T15:49:28.707Z,21.40
2017-09-13T15:51:56.332Z,21.30
2017-09-13T15:54:23.876Z,21.30
2017-09-13T15:56:51.409Z,21.30
2017-09-13T15:59:18.981Z,21.20
2017-09-13T16:01:46.515Z,21.20
2017-09-13T16:04:14.089Z,21.20
2017-09-13T16:06:41.664Z,21.20
2017-09-13T16:09:10.009Z,21.20
2017-09-13T16:11:37.551Z,21.20
2017-09-13T16:14:05.126Z,21.30
2017-09-13T16:16:33.419Z,21.20
2017-09-13T16:19:00.997Z,21.20
2017-09-13T16:21:28.531Z,21.20
2017-09-13T16:23:56.083Z,21.20
2017-09-13T16:26:23.675Z,21.30
2017-09-13T16:28:51.215Z,21.20
2017-09-13T16:31:18.800Z,21.10
2017-09-13T16:33:46.376Z,21.10
2017-09-13T16:36:13.944Z,21.20
2017-09-13T16:38:41.479Z,21.30
2017-09-13T16:41:09.809Z,21.30
2017-09-13T16:43:37.337Z,21.30
2017-09-13T16:46:04.912Z,21.30
2017-09-13T16:48:32.443Z,21.30
2017-09-13T16:51:00.014Z,21.40
2017-09-13T16:53:28.334Z,21.40
2017-09-13T16:55:55.920Z,21.40
2017-09-13T16:58:24.219Z,21.50
2017-09-13T17:00:51.779Z,21.40
2017-09-13T17:03:19.315Z,21.50
2017-09-13T17:05:46.881Z,21.40
2017-09-13T17:08:14.416Z,21.50
2017-09-13T17:10:41.991Z,21.50
2017-09-13T17:13:09.524Z,21.60
2017-09-13T17:15:37.098Z,21.60
2017-09-13T17:18:05.386Z,21.60
2017-09-13T17:20:32.966Z,21.60
2017-09-13T17:23:00.491Z,21.70
2017-09-13T17:25:28.083Z,21.70
2017-09-13T17:27:55.729Z,21.70
2017-09-13T17:30:23.275Z,21.60
2017-09-13T17:32:50.856Z,21.50
2017-09-13T17:35:18.395Z,21.60
2017-09-13T17:37:46.751Z,21.60
2017-09-13T17:40:15.049Z,21.60
2017-09-13T17:42:42.628Z,21.60
2017-09-13T17:45:10.168Z,21.50
2017-09-13T17:47:37.755Z,21.50
2017-09-13T17:50:06.048Z,21.50
2017-09-13T17:52:33.595Z,21.50
2017-09-13T17:55:01.167Z,21.50
2017-09-13T17:57:28.935Z,21.60
2017-09-13T17:59:57.284Z,21.50
2017-09-13T18:02:24.825Z,21.50
2017-09-13T18:04:52.409Z,21.40
2017-09-13T18:07:20.743Z,21.50
2017-09-13T18:09:48.303Z,21.50
2017-09-13T18:12:15.828Z,21.50
2017-09-13T18:14:43.399Z,21.60
2017-09-13T18:17:11.710Z,21.60
2017-09-13T18:19:39.275Z,21.50
2017-09-13T18:22:06.805Z,21.60
2017-09-13T18:24:34.384Z,21.60
2017-09-13T18:27:01.915Z,21.60
2017-09-13T18:29:29.487Z,21.60
2017-09-13T18:31:57.784Z,21.60
2017-09-13T18:34:25.365Z,21.60
2017-09-13T18:36:52.914Z,21.60
2017-09-13T18:39:20.483Z,21.60
2017-09-13T18:41:48.779Z,21.70
2017-09-13T18:44:16.355Z,21.70
2017-09-13T18:46:43.888Z,21.70
2017-09-13T18:49:11.463Z,21.70
2017-09-13T18:51:38.995Z,21.70
2017-09-13T18:54:06.571Z,21.80
2017-09-13T18:56:34.869Z,21.80
2017-09-13T18:59:02.448Z,21.70
2017-09-13T19:01:29.989Z,21.80
2017-09-13T19:03:57.568Z,21.90
2017-09-13T19:06:25.877Z,22.00
2017-09-13T19:08:53.435Z,21.90
2017-09-13T19:11:21.007Z,22.00
2017-09-13T19:13:48.558Z,22.00
2017-09-13T19:16:16.123Z,22.00
2017-09-13T19:18:44.436Z,22.00
2017-09-13T19:21:11.999Z,22.00
2017-09-13T19:23:39.538Z,22.00
2017-09-13T19:26:07.095Z,22.10
2017-09-13T19:28:34.619Z,22.00
2017-09-13T19:31:02.182Z,22.00
2017-09-13T19:33:29.732Z,22.00
2017-09-13T19:35:57.322Z,22.00
2017-09-13T19:38:25.683Z,21.90
2017-09-13T19:40:53.430Z,21.90
2017-09-13T19:43:21.110Z,21.90
2017-09-13T19:45:48.653Z,21.90
2017-09-13T19:48:16.987Z,21.80
2017-09-13T19:50:44.532Z,21.80
2017-09-13T19:53:12.884Z,21.80
2017-09-13T19:55:40.427Z,21.80
2017-09-13T19:58:08.771Z,21.90
2017-09-13T20:00:36.304Z,21.90
2017-09-13T20:03:03.871Z,21.80
2017-09-13T20:05:32.177Z,21.90
2017-09-13T20:07:59.751Z,21.80
2017-09-13T20:10:27.309Z,21.90
2017-09-13T20:12:55.688Z,21.90
2017-09-13T20:15:24.012Z,21.90
2017-09-13T20:17:51.614Z,21.90
2017-09-13T20:20:19.147Z,22.00
2017-09-13T20:22:47.475Z,21.90
2017-09-13T20:25:15.036Z,21.90
2017-09-13T20:27:42.566Z,21.90
2017-09-13T20:30:10.131Z,22.00
2017-09-13T20:32:37.697Z,21.90
2017-09-13T20:35:05.997Z,22.00
2017-09-13T20:37:33.560Z,22.00
2017-09-13T20:40:01.167Z,22.00
2017-09-13T20:42:28.758Z,22.00
2017-09-13T20:44:56.329Z,21.90
2017-09-13T20:47:24.712Z,22.00
2017-09-13T20:49:52.279Z,22.00
2017-09-13T20:52:19.858Z,21.90
2017-09-13T20:54:47.393Z,22.00
2017-09-13T20:57:14.975Z,21.90
2017-09-13T20:59:43.283Z,21.90
2017-09-13T21:02:10.848Z,21.90
2017-09-13T21:04:38.374Z,21.90
2017-09-13T21:07:05.943Z,21.80
2017-09-13T21:09:33.479Z,21.80
2017-09-13T21:12:01.052Z,21.80
2017-09-13T21:14:29.396Z,21.90
2017-09-13T21:16:56.976Z,21.90
2017-09-13T21:19:24.556Z,21.90
2017-09-13T21:21:52.152Z,21.90
2017-09-13T21:24:19.695Z,21.90
2017-09-13T21:26:47.272Z,21.90
2017-09-13T21:29:14.796Z,22.00
2017-09-13T21:31:43.099Z,22.00
2017-09-13T21:34:10.668Z,22.00
2017-09-13T21:36:38.203Z,22.00
2017-09-13T21:39:05.771Z,22.00
2017-09-13T21:41:33.307Z,22.00
2017-09-13T21:44:00.911Z,22.00
2017-09-13T21:46:28.519Z,22.00
2017-09-13T21:48:56.161Z,22.00
2017-09-13T21:51:23.748Z,22.00
2017-09-13T21:53:51.299Z,22.00
2017-09-13T21:56:18.887Z,22.00
2017-09-13T21:58:46.422Z,22.00
2017-09-13T22:01:14.000Z,22.00
2017-09-13T22:03:41.584Z,22.00
2017-09-13T22:06:09.114Z,22.10
2017-09-13T22:08:36.660Z,22.00
2017-09-13T22:11:04.238Z,22.00
2017-09-13T22:13:31.823Z,22.00
2017-09-13T22:16:00.179Z,21.90
2017-09-13T22:18:27.767Z,21.90
2017-09-13T22:20:55.351Z,21.90
2017-09-13T22:23:22.935Z,21.80
2017-09-13T22:25:50.527Z,21.80
2017-09-13T22:28:18.099Z,21.90
2017-09-13T22:30:45.628Z,21.90
2017-09-13T22:33:13.222Z,21.90
2017-09-13T22:35:41.523Z,21.90
2017-09-13T22:38:09.084Z,21.90
2017-09-13T22:40:36.607Z,21.90
2017-09-13T22:43:04.184Z,21.80
2017-09-13T22:45:31.775Z,21.90
2017-09-13T22:47:59.890Z,21.80
2017-09-13T22:50:27.629Z,21.90
2017-09-13T22:52:55.407Z,21.80
2017-09-13T22:55:24.935Z,21.80
2017-09-13T22:57:52.624Z,21.80
2017-09-13T23:00:20.239Z,21.80
2017-09-13T23:02:47.783Z,21.80
2017-09-13T23:05:15.353Z,21.80
2017-09-13T23:07:42.899Z,21.80
2017-09-13T23:10:10.472Z,21.80
2017-09-13T23:12:38.023Z,21.90
2017-09-13T23:15:05.662Z,21.90
2017-09-13T23:17:33.555Z,21.80
2017-09-13T23:20:01.437Z,21.90
2017-09-13T23:22:29.128Z,21.90
2017-09-13T23:24:57.642Z,21.80
2017-09-13T23:27:26.300Z,21.80
2017-09-13T23:29:54.830Z,21.80
2017-09-13T23:32:22.480Z,21.80
2017-09-13T23:34:50.788Z,21.70
2017-09-13T23:37:18.372Z,21.70
2017-09-13T23:39:45.911Z,21.80
2017-09-13T23:42:13.491Z,21.80
2017-09-13T23:44:41.028Z,21.70
2017-09-13T23:47:08.615Z,21.50
2017-09-13T23:49:36.154Z,21.50
2017-09-13T23:52:03.762Z,21.50
2017-09-13T23:54:32.093Z,21.40
2017-09-13T23:56:59.684Z,21.40
2017-09-13T23:59:27.334Z,21.40
